Latest Weather Observations for Maningrida Airport

IDD60801

Issued at 5:21 pm CST Saturday 29 February 2020 (issued every 10 minutes, with the page automatically refreshed every 10 minutes)

About weather observations | Map of weather stations | Latest weather observations for NT | Other Formats
Station Details ID: 014405 Name: MANINGRIDA AIRPORT Lat: -12.06 Lon: 134.23 Height: 28.1 m
Data from the previous 72 hours. | See also: Recent months at Maningrida Airport
Date/Time
CST
Temp
°C
App
Temp
°C
Dew
Point
°C
Rel
Hum
%
Delta-T
°C
Wind Press
QNH
hPa
Press
MSL
hPa
Rain since
9am
mm
Dir  Spd
km/h
Gust
km/h
Spd
kts
Gust
kts
29/05:00pm 31.1 33.8 25.0 70 4.3 NNW 20 28 11 15 1005.6 1005.4 0.0
29/04:30pm 30.2 33.4 25.0 73 3.7 N 17 24 9 13 1005.7 1005.5 0.0
29/04:00pm 31.1 33.5 24.2 66 4.8 NNW 19 24 10 13 1005.8 1005.6 0.0
29/03:30pm 30.9 33.2 24.5 68 4.5 N 20 28 11 15 1006.1 1005.9 0.0
29/03:00pm 31.3 34.3 25.2 70 4.3 NNW 19 26 10 14 1006.3 1006.1 0.0
29/02:30pm 31.0 33.9 24.4 68 4.6 N 17 24 9 13 1006.5 1006.3 0.0
29/02:00pm 31.4 34.5 24.8 68 4.6 N 17 24 9 13 1007.0 1006.8 0.0
29/01:30pm 31.3 33.8 24.4 66 4.8 N 19 28 10 15 1007.2 1007.0 0.0
29/01:00pm 31.1 33.5 23.7 64 5.1 NNE 17 24 9 13 1007.6 1007.4 0.0
29/12:30pm 31.1 33.4 23.5 64 5.3 N 17 22 9 12 1008.1 1007.9 0.0
29/12:00pm 30.9 33.6 24.1 67 4.7 NNE 17 22 9 12 1008.6 1008.4 0.0
29/11:30am 31.4 34.7 23.8 64 5.3 NNW 13 17 7 9 1009.0 1008.8 0.0
29/11:00am 31.0 33.9 23.9 66 4.9 NNW 15 19 8 10 1009.2 1009.0 0.0
29/10:30am 30.6 34.8 24.7 71 4.1 NNW 11 15 6 8 1009.5 1009.3 0.0
29/10:00am 30.2 33.6 24.1 70 4.2 NNW 13 17 7 9 1009.5 1009.3 0.0
29/09:30am 30.3 34.4 24.0 69 4.4 N 9 15 5 8 1009.3 1009.1 0.0
29/09:00am 29.6 34.2 24.2 73 3.8 NNE 7 11 4 6 1009.1 1008.9 0.0
29/08:30am 29.7 36.0 25.4 78 3.0 SW 2 7 1 4 1009.0 1008.8 0.0
29/08:00am 27.5 33.9 24.9 86 1.8 CALM 0 0 0 0 1008.7 1008.5 0.0
29/07:30am 26.1 32.6 25.1 94 0.7 CALM 0 0 0 0 1008.5 1008.3 0.0
29/07:00am 25.5 30.6 24.6 95 0.6 S 6 7 3 4 1008.2 1008.0 0.0
29/06:30am 25.4 30.4 24.5 95 0.6 SE 6 7 3 4 1007.9 1007.7 0.0
29/06:00am 25.5 30.4 24.6 95 0.6 SE 7 9 4 5 1007.9 1007.7 0.0
29/05:30am 25.6 30.5 24.7 95 0.6 SE 7 9 4 5 1007.7 1007.5 0.0
29/05:00am 25.5 30.4 24.6 95 0.6 SE 7 9 4 5 1007.6 1007.4 0.0
29/04:30am 25.6 30.5 24.7 95 0.6 NW 7 9 4 5 1007.3 1007.1 0.0
29/04:00am 25.8 31.1 24.9 95 0.6 NW 6 7 3 4 1007.2 1007.0 0.0
29/03:30am 25.8 32.2 24.9 95 0.6 CALM 0 0 0 0 1007.2 1007.0 0.0
29/03:00am 25.9 32.3 24.9 94 0.7 CALM 0 0 0 0 1007.4 1007.2 0.0
29/02:30am 25.9 31.9 24.9 94 0.7 NW 2 6 1 3 1007.5 1007.3 0.0
29/02:00am 26.0 31.3 25.0 94 0.7 NW 6 7 3 4 1007.7 1007.5 0.0
29/01:30am 26.1 32.6 25.1 94 0.7 CALM 0 0 0 0 1007.8 1007.6 0.0
29/01:00am 26.4 33.1 25.4 94 0.7 CALM 0 0 0 0 1008.1 1007.9 0.0
29/12:30am 26.4 33.0 25.2 93 0.8 CALM 0 0 0 0 1008.2 1008.0 0.0
29/12:00am 26.5 33.1 25.3 93 0.8 CALM 0 0 0 0 1008.4 1008.2 0.0
 
Date/Time
CST
Temp
°C
App
Temp
°C
Dew
Point
°C
Rel
Hum
%
Delta-T
°C
Wind Press
QNH
hPa
Press
MSL
hPa
Rain since
9am
mm
Dir  Spd
km/h
Gust
km/h
Spd
kts
Gust
kts
28/11:30pm 26.8 33.5 25.4 92 1.0 CALM 0 0 0 0 1008.4 1008.2 0.0
28/11:00pm 26.9 33.5 25.3 91 1.1 CALM 0 0 0 0 1008.5 1008.3 0.0
28/10:30pm 27.4 33.7 25.4 89 1.4 NW 2 6 1 3 1008.5 1008.3 0.0
28/10:00pm 27.9 33.4 25.3 86 1.8 N 6 7 3 4 1008.2 1008.0 0.0
28/09:30pm 28.1 33.2 25.5 86 1.8 NNW 9 11 5 6 1007.9 1007.7 0.0
28/09:00pm 28.0 32.6 24.8 83 2.2 NNW 9 11 5 6 1007.4 1007.2 0.0
28/08:30pm 28.0 33.6 25.4 86 1.8 NNW 6 7 3 4 1006.8 1006.6 0.0
28/08:00pm 28.2 33.1 25.2 84 2.1 NNW 9 13 5 7 1006.6 1006.4 0.0
28/07:30pm 28.4 32.8 25.0 82 2.4 NNW 11 17 6 9 1006.4 1006.2 0.0
28/07:00pm 28.8 32.8 25.0 80 2.7 N 13 15 7 8 1006.1 1005.9 0.0
28/06:30pm 29.2 32.8 25.0 78 3.0 N 15 19 8 10 1005.8 1005.6 0.0
28/06:00pm 29.7 33.2 25.4 78 3.0 N 17 22 9 12 1005.3 1005.1 0.0
28/05:30pm 29.7 33.3 25.0 76 3.3 N 15 20 8 11 1005.2 1005.0 0.0
28/05:00pm 29.8 33.0 24.9 75 3.4 N 17 22 9 12 1005.2 1005.0 0.0
28/04:30pm 30.3 33.5 24.9 73 3.8 N 17 24 9 13 1005.1 1004.9 0.0
28/04:00pm 30.5 32.6 23.7 67 4.7 N 19 24 10 13 1005.2 1005.0 0.0
28/03:30pm 30.6 34.0 25.2 73 3.8 NNE 17 20 9 11 1005.2 1005.0 0.0
28/03:00pm 29.8 33.1 25.1 76 3.3 N 17 22 9 12 1005.2 1005.0 0.0
28/02:30pm 30.3 33.4 25.4 75 3.5 NNE 19 24 10 13 1005.7 1005.5 0.0
28/02:00pm 30.2 32.9 25.0 73 3.7 N 20 28 11 15 1006.2 1006.0 0.0
28/01:30pm 30.2 33.9 25.7 77 3.2 N 17 24 9 13 1006.3 1006.1 0.0
28/01:00pm 30.1 33.0 25.4 76 3.3 N 20 28 11 15 1006.8 1006.6 0.0
28/12:30pm 30.1 32.9 25.2 75 3.5 N 20 28 11 15 1007.4 1007.2 0.0
28/12:00pm 30.5 32.7 24.9 72 3.9 N 22 30 12 16 1007.9 1007.7 0.0
28/11:30am 30.8 33.7 25.4 73 3.8 N 20 28 11 15 1008.4 1008.2 0.0
28/11:00am 30.3 33.1 24.9 73 3.8 NNE 19 24 10 13 1008.4 1008.2 0.0
28/10:30am 29.5 32.3 25.0 77 3.2 N 19 24 10 13 1008.8 1008.6 0.0
28/10:09am 29.3 32.6 25.1 78 3.0 NNE 17 22 9 12 1008.8 1008.6 0.0
28/10:00am 29.3 32.5 25.5 80 2.7 NNE 19 22 10 12 1008.8 1008.6 0.0
28/09:37am 28.9 32.4 24.9 79 2.8 NNE 15 19 8 10 1008.9 1008.7 0.0
28/09:30am 29.3 33.1 25.3 79 2.8 NNE 15 20 8 11 1008.9 1008.7 0.0
28/09:00am 29.1 32.5 25.3 80 2.7 NNE 17 24 9 13 1008.8 1008.6 15.4
28/08:30am 27.9 32.6 24.9 84 2.1 N 9 13 5 7 1008.7 1008.5 15.4
28/08:00am 26.7 32.7 24.9 90 1.3 E 2 7 1 4 1008.3 1008.1 15.4
28/07:30am 25.9 30.8 24.7 93 0.8 ESE 7 9 4 5 1008.1 1007.9 15.4
28/07:00am 25.5 31.3 24.5 94 0.7 SE 2 7 1 4 1008.0 1007.8 15.4
28/06:31am 25.2 31.0 24.0 93 0.8 CALM 0 0 0 0 1007.5 1007.3 15.4
28/06:30am 25.2 31.0 24.0 93 0.8 CALM 0 0 0 0 1007.5 1007.3 15.4
28/06:00am 25.7 31.0 24.3 92 1.0 NW 4 9 2 5 1007.4 1007.2 15.4
28/05:40am 25.4 29.8 23.5 89 1.3 NNW 6 9 3 5 1007.2 1007.0 15.0
28/05:30am 25.8 30.2 24.4 92 1.0 NNW 9 15 5 8 1007.2 1007.0 15.0
28/05:27am 25.8 30.1 24.2 91 1.1 NNW 9 15 5 8 1007.1 1006.9 15.0
28/05:00am 26.2 29.8 24.4 90 1.2 W 13 22 7 12 1006.5 1006.3 14.2
28/04:49am 26.9 31.6 24.9 89 1.4 NNW 9 15 5 8 1006.6 1006.4 11.4
28/04:30am 27.6 31.6 25.0 86 1.8 N 13 17 7 9 1006.1 1005.9 10.2
28/04:18am 27.7 31.6 25.5 88 1.5 N 15 20 8 11 1005.9 1005.7 10.2
28/04:00am 27.4 30.6 25.0 87 1.7 N 17 24 9 13 1005.9 1005.7 10.2
28/03:30am 27.3 32.1 25.1 88 1.5 NE 9 13 5 7 1005.9 1005.7 9.0
28/03:00am 27.1 31.6 24.0 83 2.1 NE 7 9 4 5 1006.2 1006.0 9.0
28/02:30am 28.0 32.1 25.2 85 2.0 N 13 19 7 10 1006.4 1006.2 9.0
28/02:00am 27.9 31.7 24.1 80 2.6 N 11 15 6 8 1006.7 1006.5 9.0
28/01:30am 27.9 30.5 23.9 79 2.8 N 17 24 9 13 1006.9 1006.7 9.0
28/01:00am 28.4 32.3 25.4 84 2.1 N 15 22 8 12 1007.3 1007.1 9.0
28/12:30am 28.4 32.1 25.2 83 2.3 N 15 20 8 11 1007.6 1007.4 9.0
28/12:00am 28.3 31.7 24.7 81 2.5 N 15 22 8 12 1007.6 1007.4 9.0
 
Date/Time
CST
Temp
°C
App
Temp
°C
Dew
Point
°C
Rel
Hum
%
Delta-T
°C
Wind Press
QNH
hPa
Press
MSL
hPa
Rain since
9am
mm
Dir  Spd
km/h
Gust
km/h
Spd
kts
Gust
kts
27/11:30pm 28.3 32.2 24.9 82 2.4 N 13 19 7 10 1007.9 1007.7 9.0
27/11:00pm 28.3 31.8 24.9 82 2.4 N 15 20 8 11 1008.0 1007.8 9.0
27/10:30pm 28.3 31.8 24.9 82 2.4 N 15 22 8 12 1007.7 1007.5 9.0
27/10:00pm 28.3 31.5 24.9 82 2.4 NNW 17 20 9 11 1007.4 1007.2 9.0
27/09:30pm 28.2 31.3 24.2 79 2.8 NNW 15 20 8 11 1007.0 1006.8 9.0
27/09:00pm 28.5 30.3 23.2 73 3.6 N 19 24 10 13 1006.6 1006.4 9.0
27/08:30pm 28.6 31.7 25.4 83 2.3 N 19 24 10 13 1006.0 1005.8 9.0
27/08:00pm 28.5 31.8 25.1 82 2.4 N 17 22 9 12 1006.0 1005.8 9.0
27/07:30pm 28.5 31.4 24.5 79 2.8 N 17 28 9 15 1005.6 1005.4 9.0
27/07:00pm 28.6 31.8 25.0 81 2.5 N 17 24 9 13 1005.2 1005.0 9.0
27/06:30pm 28.7 31.3 24.9 80 2.7 N 20 26 11 14 1005.2 1005.0 9.0
27/06:00pm 28.9 31.7 24.9 79 2.8 N 19 24 10 13 1004.9 1004.7 9.0
27/05:30pm 29.3 32.4 24.8 77 3.2 N 17 20 9 11 1004.7 1004.5 9.0
27/05:00pm 29.5 31.8 24.4 74 3.6 N 20 28 11 15 1004.5 1004.3 9.0
27/04:30pm 30.1 32.3 24.0 70 4.2 NNW 19 28 10 15 1004.4 1004.2 9.0
27/04:00pm 30.0 30.9 23.4 67 4.5 N 24 32 13 17 1004.3 1004.1 9.0
27/03:30pm 29.8 32.3 24.7 74 3.6 N 20 28 11 15 1004.6 1004.4 9.0
27/03:00pm 30.3 33.6 25.1 73 3.7 N 17 22 9 12 1005.2 1005.0 9.0
27/02:30pm 29.5 32.0 22.5 66 4.8 NW 13 20 7 11 1005.7 1005.5 9.0
27/02:00pm 29.8 32.3 22.5 65 5.0 NNW 13 24 7 13 1005.7 1005.5 8.8
27/01:30pm 29.8 31.8 22.3 64 5.1 NW 15 24 8 13 1006.2 1006.0 8.8
27/01:00pm 29.1 32.4 25.1 79 2.8 NNW 17 28 9 15 1006.8 1006.6 8.8
27/12:30pm 26.7 27.8 23.0 80 2.5 NW 22 39 12 21 1007.3 1007.1 8.6
27/12:22pm 27.6 27.8 22.8 75 3.3 NNW 26 57 14 31 1007.4 1007.2 8.4
27/12:00pm 29.8 31.8 25.8 79 2.8 N 26 33 14 18 1007.3 1007.1 8.4
27/11:30am 29.1 31.8 24.7 77 3.1 NNW 19 30 10 16 1007.4 1007.2 8.4
27/11:00am 28.4 31.2 25.0 82 2.4 NNW 19 26 10 14 1007.6 1007.4 8.4
27/10:30am 26.7 30.4 24.5 88 1.5 N 13 19 7 10 1007.7 1007.5 8.4
27/10:17am 25.7 29.4 23.9 90 1.2 N 11 17 6 9 1007.7 1007.5 8.4
27/10:00am 24.9 25.0 22.6 87 1.5 NW 26 48 14 26 1007.5 1007.3 8.0
27/09:56am 25.0 25.4 23.1 89 1.3 NNW 26 48 14 26 1007.8 1007.6 7.0
27/09:55am 25.1 25.5 23.2 89 1.3 NNW 26 48 14 26 1007.9 1007.7 6.6
27/09:54am 25.4 26.4 23.5 89 1.3 NNW 24 48 13 26 1007.9 1007.7 5.2
27/09:30am 25.1 28.1 23.3 90 1.2 NW 13 26 7 14 1007.4 1007.2 3.2
27/09:00am 25.3 28.9 24.4 95 0.6 W 13 32 7 17 1007.5 1007.3 69.8
27/08:30am 24.9 29.4 23.9 94 0.7 SSW 7 15 4 8 1007.2 1007.0 65.6
27/08:28am 25.0 29.5 24.0 94 0.7 SSW 7 15 4 8 1007.3 1007.1 64.0
27/08:20am 25.0 29.5 24.0 94 0.7 SW 7 11 4 6 1006.9 1006.7 63.0
27/08:00am 24.7 27.6 23.1 91 1.1 WSW 13 20 7 11 1006.8 1006.6 62.6
27/07:30am 24.6 29.8 23.6 94 0.7 W 2 9 1 5 1006.5 1006.3 61.0
27/07:00am 24.3 28.3 22.7 91 1.1 WSW 6 9 3 5 1005.9 1005.7 60.6
27/06:34am 24.8 28.6 22.7 88 1.4 WSW 7 15 4 8 1005.9 1005.7 60.4
27/06:30am 24.9 27.9 22.6 87 1.6 W 11 19 6 10 1006.0 1005.8 60.4
27/06:11am 26.5 26.2 23.8 85 1.9 N 32 50 17 27 1005.2 1005.0 58.8
27/06:00am 27.1 27.4 23.6 81 2.4 NNW 28 46 15 25 1005.2 1005.0 57.2
27/05:59am 27.2 27.4 23.4 80 2.6 NNW 28 46 15 25 1005.2 1005.0 57.2
27/05:30am 28.3 30.5 24.9 82 2.4 NNW 22 33 12 18 1004.8 1004.6 57.2
27/05:00am 28.2 30.0 25.4 85 2.0 NNW 26 37 14 20 1004.6 1004.4 57.2
27/04:30am 27.7 30.6 25.9 90 1.3 NNW 22 33 12 18 1004.5 1004.3 57.2
27/04:03am 27.3 29.0 24.0 82 2.3 NW 22 43 12 23 1004.5 1004.3 51.2
27/04:00am 28.7 31.5 25.3 82 2.4 NW 20 33 11 18 1004.1 1003.9 48.6
27/03:30am 28.7 30.8 25.3 82 2.4 NNW 24 35 13 19 1004.0 1003.8 48.6
27/03:00am 28.5 30.6 25.3 83 2.3 NNW 24 37 13 20 1004.1 1003.9 48.6
27/02:30am 28.1 29.9 25.5 86 1.8 NNW 26 39 14 21 1004.5 1004.3 48.6
27/02:00am 28.3 30.8 25.9 87 1.7 NNW 24 37 13 20 1004.7 1004.5 48.0
27/01:30am 27.3 31.3 26.2 94 0.8 NNW 17 26 9 14 1005.0 1004.8 47.4
27/01:00am 25.1 31.1 24.2 95 0.6 CALM 0 0 0 0 1005.6 1005.4 47.4
27/12:39am 25.0 29.7 24.0 94 0.7 SSE 6 11 3 6 1005.8 1005.6 47.4
27/12:35am 25.0 29.5 24.0 94 0.7 SSW 7 11 4 6 1005.9 1005.7 47.4
27/12:30am 24.8 29.2 23.8 94 0.7 SW 7 11 4 6 1005.7 1005.5 47.4
27/12:24am 24.9 28.6 23.9 94 0.7 WSW 11 17 6 9 1005.7 1005.5 47.4
27/12:16am 25.0 29.0 23.8 93 0.8 WSW 9 17 5 9 1006.0 1005.8 43.2
27/12:00am 25.0 27.8 23.6 92 1.0 WSW 15 32 8 17 1005.9 1005.7 41.0
 
Date/Time
CST
Temp
°C
App
Temp
°C
Dew
Point
°C
Rel
Hum
%
Delta-T
°C
Wind Press
QNH
hPa
Press
MSL
hPa
Rain since
9am
mm
Dir  Spd
km/h
Gust
km/h
Spd
kts
Gust
kts
26/11:52pm 24.9 28.7 23.5 92 1.0 WSW 9 17 5 9 1006.1 1005.9 41.0
26/11:30pm 25.2 27.6 22.9 87 1.6 WSW 15 24 8 13 1006.0 1005.8 39.8
26/11:23pm 26.4 29.6 23.7 85 1.9 W 13 19 7 10 1006.1 1005.9 39.0
26/11:20pm 27.4 31.1 25.2 88 1.5 WNW 15 28 8 15 1006.3 1006.1 36.6
26/11:00pm 28.2 31.7 26.0 88 1.6 NW 19 28 10 15 1006.0 1005.8 36.0
26/10:53pm 27.9 31.3 25.9 89 1.4 NW 19 33 10 18 1006.1 1005.9 35.8
26/10:34pm 27.7 31.1 25.9 90 1.3 NW 19 35 10 19 1006.1 1005.9 35.2
26/10:30pm 27.7 30.8 25.7 89 1.4 NW 20 35 11 19 1006.0 1005.8 35.0
26/10:05pm 27.5 30.9 25.9 91 1.1 NW 19 30 10 16 1005.6 1005.4 34.4
26/10:00pm 27.4 30.8 26.2 93 0.9 NNW 20 32 11 17 1005.5 1005.3 34.4
26/09:30pm 24.9 23.6 22.4 86 1.7 NNW 33 50 18 27 1005.7 1005.5 27.0
26/09:26pm 26.2 27.2 24.8 92 1.0 NNW 28 50 15 27 1005.7 1005.5 25.0
26/09:23pm 26.2 28.2 25.2 94 0.7 NW 24 35 13 19 1005.8 1005.6 24.2
26/09:01pm 26.6 27.6 24.1 86 1.7 NW 26 41 14 22 1005.8 1005.6 4.8
26/09:00pm 27.0 28.5 24.3 85 1.9 NW 24 41 13 22 1005.7 1005.5 2.8
26/08:30pm 28.7 30.5 25.5 83 2.3 NNW 26 39 14 21 1004.7 1004.5 1.8
26/08:00pm 28.6 31.6 25.6 84 2.1 NW 20 32 11 17 1004.5 1004.3 1.6
26/07:30pm 28.6 30.4 24.8 80 2.7 NW 24 33 13 18 1004.5 1004.3 1.6
26/07:00pm 29.1 29.6 25.5 81 2.5 NNW 33 46 18 25 1004.0 1003.8 1.6
26/06:30pm 29.1 29.8 25.5 81 2.5 NNW 32 43 17 23 1003.3 1003.1 1.6
26/06:00pm 28.7 30.0 25.3 82 2.4 NNW 28 43 15 23 1003.1 1002.9 1.6
26/05:30pm 29.1 29.2 25.5 81 2.5 NNW 35 48 19 26 1002.9 1002.7 1.4

Other formats

Comma delimited format used in spreadsheet applications
http://www.bom.gov.au/fwo/IDD60801/IDD60801.95142.axf

JavaScript Object Notation format (JSON) in row-major order
http://www.bom.gov.au/fwo/IDD60801/IDD60801.95142.json

Data quality

Most of these data are generated automatically and are frequently updated. Quality checks on data are not normally performed. It is possible for incorrect values to appear. Refer to information at About Latest Weather Observations and please check the disclaimer before using these data.